createdAt,value
2018-08-24T00:00:44.803Z,977.50
2018-08-24T00:01:44.769Z,977.51
2018-08-24T00:02:44.717Z,977.50
2018-08-24T00:03:44.681Z,977.51
2018-08-24T00:04:44.652Z,977.48
2018-08-24T00:05:44.628Z,977.52
2018-08-24T00:06:44.591Z,977.55
2018-08-24T00:07:44.557Z,977.54
2018-08-24T00:08:44.517Z,977.59
2018-08-24T00:09:44.497Z,977.55
2018-08-24T00:10:44.456Z,977.53
2018-08-24T00:11:44.448Z,977.49
2018-08-24T00:12:44.417Z,977.50
2018-08-24T00:13:44.357Z,977.50
2018-08-24T00:14:44.340Z,977.47
2018-08-24T00:15:44.287Z,977.52
2018-08-24T00:16:44.252Z,977.49
2018-08-24T00:17:44.202Z,977.53
2018-08-24T00:18:44.182Z,977.53
2018-08-24T00:19:44.152Z,977.52
2018-08-24T00:20:44.149Z,977.52
2018-08-24T00:21:44.067Z,977.50
2018-08-24T00:22:44.099Z,977.50
2018-08-24T00:23:44.031Z,977.48
2018-08-24T00:24:43.983Z,977.47
2018-08-24T00:25:43.946Z,977.48
2018-08-24T00:26:43.899Z,977.47
2018-08-24T00:27:43.876Z,977.49
2018-08-24T00:28:43.839Z,977.49
2018-08-24T00:29:43.801Z,977.49
2018-08-24T00:30:43.774Z,977.48
2018-08-24T00:31:43.798Z,977.48
2018-08-24T00:32:43.713Z,977.46
2018-08-24T00:33:43.690Z,977.43
2018-08-24T00:34:43.627Z,977.38
2018-08-24T00:35:43.636Z,977.38
2018-08-24T00:36:43.597Z,977.39
2018-08-24T00:37:43.579Z,977.38
2018-08-24T00:38:43.527Z,977.36
2018-08-24T00:39:43.481Z,977.44
2018-08-24T00:40:43.425Z,977.35
2018-08-24T00:41:43.396Z,977.35
2018-08-24T00:42:43.431Z,977.31
2018-08-24T00:43:43.383Z,977.32
2018-08-24T00:44:43.309Z,977.28
2018-08-24T00:45:43.259Z,977.24
2018-08-24T00:46:43.234Z,977.21
2018-08-24T00:47:43.220Z,977.22
2018-08-24T00:48:43.159Z,977.24
2018-08-24T00:49:43.140Z,977.29
2018-08-24T00:50:43.100Z,977.31
2018-08-24T00:51:43.047Z,977.29
2018-08-24T00:52:43.028Z,977.29
2018-08-24T00:53:42.984Z,977.30
2018-08-24T00:54:42.950Z,977.31
2018-08-24T00:55:42.915Z,977.29
2018-08-24T00:56:42.878Z,977.30
2018-08-24T00:57:42.857Z,977.30
2018-08-24T00:58:42.827Z,977.31
2018-08-24T00:59:42.780Z,977.33
2018-08-24T01:00:42.738Z,977.37
2018-08-24T01:01:42.712Z,977.34
2018-08-24T01:02:42.674Z,977.35
2018-08-24T01:03:42.648Z,977.31
2018-08-24T01:04:42.612Z,977.33
2018-08-24T01:05:42.573Z,977.27
2018-08-24T01:06:42.543Z,977.28
2018-08-24T01:07:42.586Z,977.30
2018-08-24T01:08:42.479Z,977.30
2018-08-24T01:09:42.516Z,977.32
2018-08-24T01:10:42.396Z,977.35
2018-08-24T01:11:42.398Z,977.32
2018-08-24T01:12:42.339Z,977.32
2018-08-24T01:13:42.322Z,977.32
2018-08-24T01:14:42.276Z,977.32
2018-08-24T01:15:42.239Z,977.30
2018-08-24T01:16:42.197Z,977.35
2018-08-24T01:17:42.166Z,977.30
2018-08-24T01:18:42.129Z,977.29
2018-08-24T01:19:42.096Z,977.30
2018-08-24T01:20:42.065Z,977.30
2018-08-24T01:21:42.029Z,977.27
2018-08-24T01:22:42.012Z,977.30
2018-08-24T01:23:41.948Z,977.30
2018-08-24T01:24:41.920Z,977.31
2018-08-24T01:25:41.902Z,977.31
2018-08-24T01:26:41.899Z,977.31
2018-08-24T01:27:41.829Z,977.30
2018-08-24T01:28:41.781Z,977.32
2018-08-24T01:29:41.771Z,977.31
2018-08-24T01:30:41.725Z,977.31
2018-08-24T01:31:41.684Z,977.34
2018-08-24T01:32:41.698Z,977.32
2018-08-24T01:33:41.623Z,977.36
2018-08-24T01:34:41.596Z,977.30
2018-08-24T01:35:41.564Z,977.31
2018-08-24T01:36:41.507Z,977.29
2018-08-24T01:37:41.477Z,977.30
2018-08-24T01:38:41.437Z,977.26
2018-08-24T01:39:41.405Z,977.26
2018-08-24T01:40:41.379Z,977.35
2018-08-24T01:41:41.336Z,977.33
2018-08-24T01:42:41.315Z,977.35
2018-08-24T01:43:41.284Z,977.30
2018-08-24T01:44:41.246Z,977.29
2018-08-24T01:45:41.194Z,977.30
2018-08-24T01:46:41.180Z,977.26
2018-08-24T01:47:41.141Z,977.31
2018-08-24T01:48:41.125Z,977.30
2018-08-24T01:49:41.067Z,977.31
2018-08-24T01:50:41.032Z,977.36
2018-08-24T01:51:41.027Z,977.33
2018-08-24T01:52:40.970Z,977.33
2018-08-24T01:53:40.943Z,977.27
2018-08-24T01:54:40.902Z,977.26
2018-08-24T01:55:40.851Z,977.33
2018-08-24T01:56:40.830Z,977.39
2018-08-24T01:57:40.809Z,977.37
2018-08-24T01:58:40.773Z,977.38
2018-08-24T01:59:40.751Z,977.39
2018-08-24T02:00:40.690Z,977.39
2018-08-24T02:01:40.677Z,977.35
2018-08-24T02:02:40.621Z,977.33
2018-08-24T02:03:40.587Z,977.35
2018-08-24T02:04:40.539Z,977.33
2018-08-24T02:05:40.511Z,977.34
2018-08-24T02:06:40.504Z,977.37
2018-08-24T02:07:40.472Z,977.39
2018-08-24T02:08:40.418Z,977.42
2018-08-24T02:09:40.382Z,977.40
2018-08-24T02:10:40.341Z,977.39
2018-08-24T02:11:40.308Z,977.43
2018-08-24T02:12:40.345Z,977.36
2018-08-24T02:13:40.261Z,977.40
2018-08-24T02:14:40.211Z,977.38
2018-08-24T02:15:40.169Z,977.43
2018-08-24T02:16:40.130Z,977.41
2018-08-24T02:17:40.132Z,977.41
2018-08-24T02:18:40.085Z,977.38
2018-08-24T02:19:40.049Z,977.34
2018-08-24T02:20:40.012Z,977.38
2018-08-24T02:21:39.987Z,977.38
2018-08-24T02:22:39.935Z,977.40
2018-08-24T02:23:39.908Z,977.33
2018-08-24T02:24:39.866Z,977.34
2018-08-24T02:25:39.845Z,977.34
2018-08-24T02:26:39.790Z,977.38
2018-08-24T02:27:39.896Z,977.38
2018-08-24T02:28:39.750Z,977.36
2018-08-24T02:29:39.718Z,977.35
2018-08-24T02:30:39.669Z,977.34
2018-08-24T02:31:39.646Z,977.35
2018-08-24T02:32:39.590Z,977.32
2018-08-24T02:33:39.562Z,977.33
2018-08-24T02:34:39.529Z,977.32
2018-08-24T02:35:39.499Z,977.34
2018-08-24T02:36:39.478Z,977.30
2018-08-24T02:37:39.425Z,977.28
2018-08-24T02:38:39.405Z,977.26
2018-08-24T02:39:39.370Z,977.29
2018-08-24T02:40:39.331Z,977.28
2018-08-24T02:41:39.298Z,977.23
2018-08-24T02:42:39.273Z,977.18
2018-08-24T02:43:39.240Z,977.23
2018-08-24T02:44:39.191Z,977.17
2018-08-24T02:45:39.145Z,977.16
2018-08-24T02:46:39.137Z,977.14
2018-08-24T02:47:39.086Z,977.13
2018-08-24T02:48:39.062Z,977.12
2018-08-24T02:49:39.040Z,977.12
2018-08-24T02:50:38.987Z,977.10
2018-08-24T02:51:38.984Z,977.12
2018-08-24T02:52:38.914Z,977.12
2018-08-24T02:53:38.891Z,977.10
2018-08-24T02:54:38.854Z,977.14
2018-08-24T02:55:38.826Z,977.13
2018-08-24T02:56:38.802Z,977.13
2018-08-24T02:57:38.742Z,977.12
2018-08-24T02:58:38.708Z,977.09
2018-08-24T02:59:38.680Z,977.08
2018-08-24T03:00:38.658Z,977.08
2018-08-24T03:01:38.621Z,977.06
2018-08-24T03:02:38.585Z,977.08
2018-08-24T03:03:38.555Z,977.07
2018-08-24T03:04:38.512Z,977.07
2018-08-24T03:05:38.686Z,977.10
2018-08-24T03:06:38.450Z,977.11
2018-08-24T03:07:38.404Z,977.08
2018-08-24T03:08:38.391Z,977.06
2018-08-24T03:09:38.351Z,977.08
2018-08-24T03:10:38.306Z,977.01
2018-08-24T03:11:38.283Z,977.04
2018-08-24T03:12:38.238Z,977.05
2018-08-24T03:13:38.207Z,977.07
2018-08-24T03:14:38.199Z,977.07
2018-08-24T03:15:38.163Z,977.07
2018-08-24T03:16:38.112Z,977.11
2018-08-24T03:17:38.082Z,977.12
2018-08-24T03:18:38.055Z,977.10
2018-08-24T03:19:38.009Z,977.08
2018-08-24T03:20:37.975Z,977.11
2018-08-24T03:21:37.944Z,977.11
2018-08-24T03:22:37.901Z,977.12
2018-08-24T03:23:37.879Z,977.15
2018-08-24T03:24:37.855Z,977.12
2018-08-24T03:25:37.841Z,977.11
2018-08-24T03:26:37.783Z,977.12
2018-08-24T03:27:37.752Z,977.12
2018-08-24T03:28:37.728Z,977.16
2018-08-24T03:29:37.712Z,977.10
2018-08-24T03:30:37.646Z,977.11
2018-08-24T03:31:37.605Z,977.08
2018-08-24T03:32:37.577Z,977.11
2018-08-24T03:33:37.599Z,977.10
2018-08-24T03:34:37.505Z,977.06
2018-08-24T03:35:37.470Z,977.07
2018-08-24T03:36:37.435Z,977.11
2018-08-24T03:37:37.398Z,977.08
2018-08-24T03:38:37.378Z,977.10
2018-08-24T03:39:37.366Z,977.09
2018-08-24T03:40:37.299Z,977.11
2018-08-24T03:41:37.271Z,977.16
2018-08-24T03:42:37.253Z,977.17
2018-08-24T03:43:37.209Z,977.16
2018-08-24T03:44:37.172Z,977.18
2018-08-24T03:45:37.180Z,977.18
2018-08-24T03:46:37.120Z,977.16
2018-08-24T03:47:37.066Z,977.14
2018-08-24T03:48:37.054Z,977.14
2018-08-24T03:49:37.027Z,977.12
2018-08-24T03:50:36.996Z,977.15
2018-08-24T03:51:36.924Z,977.14
2018-08-24T03:52:36.941Z,977.13
2018-08-24T03:53:36.904Z,977.12
2018-08-24T03:54:36.834Z,977.11
2018-08-24T03:55:36.804Z,977.08
2018-08-24T03:56:36.780Z,977.07
2018-08-24T03:57:36.736Z,977.05
2018-08-24T03:58:36.701Z,977.03
2018-08-24T03:59:36.701Z,977.01
2018-08-24T04:00:36.635Z,977.03
2018-08-24T04:01:36.594Z,977.04
2018-08-24T04:02:36.650Z,977.10
2018-08-24T04:03:36.533Z,977.09
2018-08-24T04:04:36.497Z,977.15
2018-08-24T04:05:36.482Z,977.17
2018-08-24T04:06:36.429Z,977.21
2018-08-24T04:07:36.418Z,977.24
2018-08-24T04:08:36.388Z,977.25
2018-08-24T04:09:36.770Z,977.24
2018-08-24T04:10:36.409Z,977.26
2018-08-24T04:11:36.348Z,977.26
2018-08-24T04:12:36.464Z,977.26
2018-08-24T04:13:36.321Z,977.25
2018-08-24T04:14:36.223Z,977.32
2018-08-24T04:15:36.379Z,977.30
2018-08-24T04:16:36.100Z,977.30
2018-08-24T04:17:36.138Z,977.32
2018-08-24T04:18:36.119Z,977.32
2018-08-24T04:19:36.219Z,977.33
2018-08-24T04:20:35.956Z,977.33
2018-08-24T04:21:35.941Z,977.34
2018-08-24T04:22:35.895Z,977.32
2018-08-24T04:23:35.873Z,977.30
2018-08-24T04:24:35.836Z,977.33
2018-08-24T04:25:35.823Z,977.31
2018-08-24T04:26:35.782Z,977.29
2018-08-24T04:27:35.738Z,977.28
2018-08-24T04:28:35.783Z,977.26
2018-08-24T04:29:35.667Z,977.23
2018-08-24T04:30:35.624Z,977.23
2018-08-24T04:31:35.601Z,977.28
2018-08-24T04:32:35.570Z,977.31
2018-08-24T04:33:35.544Z,977.29
2018-08-24T04:34:35.500Z,977.36
2018-08-24T04:35:35.467Z,977.35
2018-08-24T04:36:35.453Z,977.38
2018-08-24T04:37:35.410Z,977.37
2018-08-24T04:38:35.386Z,977.37
2018-08-24T04:39:35.339Z,977.38
2018-08-24T04:40:35.320Z,977.41
2018-08-24T04:41:35.276Z,977.41
2018-08-24T04:42:35.235Z,977.43
2018-08-24T04:43:35.210Z,977.38
2018-08-24T04:44:35.193Z,977.42
2018-08-24T04:45:35.166Z,977.43
2018-08-24T04:46:35.111Z,977.40
2018-08-24T04:47:35.089Z,977.44
2018-08-24T04:48:35.154Z,977.42
2018-08-24T04:49:35.015Z,977.38
2018-08-24T04:50:34.967Z,977.38
2018-08-24T04:51:35.014Z,977.41
2018-08-24T04:52:34.949Z,977.39
2018-08-24T04:53:34.880Z,977.34
2018-08-24T04:54:34.873Z,977.33
2018-08-24T04:55:34.833Z,977.37
2018-08-24T04:56:34.788Z,977.35
2018-08-24T04:57:34.744Z,977.40
2018-08-24T04:58:34.715Z,977.39
2018-08-24T04:59:34.678Z,977.39
2018-08-24T05:00:34.665Z,977.39
2018-08-24T05:01:34.608Z,977.37
2018-08-24T05:02:34.619Z,977.38
2018-08-24T05:03:34.637Z,977.45
2018-08-24T05:04:34.500Z,977.43
2018-08-24T05:05:34.502Z,977.53
2018-08-24T05:06:34.518Z,977.53
2018-08-24T05:07:34.436Z,977.55
2018-08-24T05:08:34.423Z,977.58
2018-08-24T05:09:34.343Z,977.59
2018-08-24T05:10:34.320Z,977.60
2018-08-24T05:11:34.280Z,977.58
2018-08-24T05:12:34.247Z,977.56
2018-08-24T05:13:34.206Z,977.57
2018-08-24T05:14:34.176Z,977.56
2018-08-24T05:15:34.147Z,977.60
2018-08-24T05:16:34.109Z,977.62
2018-08-24T05:17:34.121Z,977.66
2018-08-24T05:18:34.187Z,977.68
2018-08-24T05:19:34.068Z,977.72
2018-08-24T05:20:33.988Z,977.70
2018-08-24T05:21:33.939Z,977.72
2018-08-24T05:22:33.921Z,977.73
2018-08-24T05:23:33.942Z,977.73
2018-08-24T05:24:33.891Z,977.71
2018-08-24T05:25:33.852Z,977.70
2018-08-24T05:26:33.787Z,977.68
2018-08-24T05:27:33.751Z,977.72
2018-08-24T05:28:33.730Z,977.69
2018-08-24T05:29:33.665Z,977.74
2018-08-24T05:30:33.635Z,977.76
2018-08-24T05:31:33.620Z,977.76
2018-08-24T05:32:33.632Z,977.76
2018-08-24T05:33:33.560Z,977.77
2018-08-24T05:34:33.500Z,977.78
2018-08-24T05:35:33.508Z,977.81
2018-08-24T05:36:33.452Z,977.80
2018-08-24T05:37:33.403Z,977.81
2018-08-24T05:38:33.373Z,977.79
2018-08-24T05:39:33.517Z,977.87
2018-08-24T05:40:33.332Z,977.85
2018-08-24T05:41:33.393Z,977.87
2018-08-24T05:42:33.300Z,977.88
2018-08-24T05:43:33.228Z,977.84
2018-08-24T05:44:33.188Z,977.84
2018-08-24T05:45:33.152Z,977.83
2018-08-24T05:46:33.110Z,977.83
2018-08-24T05:47:33.082Z,977.86
2018-08-24T05:48:33.076Z,977.84
2018-08-24T05:49:33.044Z,977.84
2018-08-24T05:50:33.020Z,977.88
2018-08-24T05:51:32.954Z,977.89
2018-08-24T05:52:33.923Z,977.87
2018-08-24T05:53:32.918Z,977.87
2018-08-24T05:54:32.858Z,977.89
2018-08-24T05:55:32.914Z,977.88
2018-08-24T05:56:32.785Z,977.91
2018-08-24T05:57:32.758Z,977.89
2018-08-24T05:58:32.754Z,977.88
2018-08-24T05:59:32.709Z,977.83
2018-08-24T06:00:32.699Z,977.87
2018-08-24T06:01:32.653Z,977.91
2018-08-24T06:02:32.597Z,977.89
2018-08-24T06:03:32.575Z,977.92
2018-08-24T06:04:32.548Z,977.96
2018-08-24T06:05:32.517Z,977.95
2018-08-24T06:06:32.502Z,977.96
2018-08-24T06:07:32.448Z,977.96
2018-08-24T06:08:32.400Z,977.95
2018-08-24T06:09:32.384Z,977.97
2018-08-24T06:10:32.346Z,977.96
2018-08-24T06:11:32.312Z,977.97
2018-08-24T06:12:32.322Z,978.06
2018-08-24T06:13:32.266Z,978.03
2018-08-24T06:14:32.220Z,978.08
2018-08-24T06:15:32.193Z,978.13
2018-08-24T06:16:32.168Z,978.12
2018-08-24T06:17:32.138Z,978.09
2018-08-24T06:18:32.097Z,978.12
2018-08-24T06:19:32.080Z,978.12
2018-08-24T06:20:32.038Z,978.15
2018-08-24T06:21:32.006Z,978.16
2018-08-24T06:22:31.974Z,978.11
2018-08-24T06:23:31.947Z,978.09
2018-08-24T06:24:31.993Z,978.06
2018-08-24T06:25:31.893Z,977.99
2018-08-24T06:26:31.865Z,978.04
2018-08-24T06:27:31.840Z,978.05
2018-08-24T06:28:31.777Z,978.06
2018-08-24T06:29:31.761Z,978.08
2018-08-24T06:30:31.733Z,978.11
2018-08-24T06:31:31.699Z,978.10
2018-08-24T06:32:31.681Z,978.12
2018-08-24T06:33:31.653Z,978.07
2018-08-24T06:34:31.611Z,978.07
2018-08-24T06:35:31.569Z,978.08
2018-08-24T06:36:31.543Z,978.09
2018-08-24T06:37:31.503Z,978.07
2018-08-24T06:38:31.472Z,978.07
2018-08-24T06:39:31.491Z,978.07
2018-08-24T06:40:31.421Z,978.08
2018-08-24T06:41:31.391Z,978.08
2018-08-24T06:42:31.361Z,978.12
2018-08-24T06:43:31.330Z,978.09
2018-08-24T06:44:31.296Z,978.10
2018-08-24T06:45:31.267Z,978.08
2018-08-24T06:46:31.235Z,978.10
2018-08-24T06:47:31.203Z,978.06
2018-08-24T06:48:31.184Z,978.02
2018-08-24T06:49:31.168Z,978.00
2018-08-24T06:50:31.132Z,978.01
2018-08-24T06:51:31.099Z,978.06
2018-08-24T06:52:31.060Z,978.07
2018-08-24T06:53:31.123Z,978.08
2018-08-24T06:54:31.002Z,978.07
2018-08-24T06:55:30.987Z,978.08
2018-08-24T06:56:30.927Z,978.07
2018-08-24T06:57:30.909Z,978.08
2018-08-24T06:58:30.891Z,978.06
2018-08-24T06:59:30.898Z,978.08
2018-08-24T07:00:30.833Z,978.10
2018-08-24T07:01:30.785Z,978.12
2018-08-24T07:02:30.772Z,978.10
2018-08-24T07:03:30.768Z,978.09
2018-08-24T07:04:30.695Z,978.10
2018-08-24T07:05:30.671Z,978.11
2018-08-24T07:06:30.649Z,978.14
2018-08-24T07:07:30.606Z,978.16
2018-08-24T07:08:30.592Z,978.14
2018-08-24T07:09:30.572Z,978.12
2018-08-24T07:10:30.535Z,978.15
2018-08-24T07:11:30.505Z,978.19
2018-08-24T07:12:30.484Z,978.19
2018-08-24T07:13:30.449Z,978.17
2018-08-24T07:14:30.415Z,978.16
2018-08-24T07:15:30.392Z,978.22
2018-08-24T07:16:30.363Z,978.18
2018-08-24T07:17:30.334Z,978.21
2018-08-24T07:18:30.315Z,978.16
2018-08-24T07:19:30.265Z,978.15
2018-08-24T07:20:30.272Z,978.11
2018-08-24T07:21:30.214Z,978.09
2018-08-24T07:22:30.189Z,978.07
2018-08-24T07:23:30.210Z,978.12
2018-08-24T07:24:30.129Z,978.11
2018-08-24T07:25:30.105Z,978.16
2018-08-24T07:26:30.075Z,978.14
2018-08-24T07:27:30.070Z,978.15
2018-08-24T07:28:30.012Z,978.18
2018-08-24T07:29:30.008Z,978.17
2018-08-24T07:30:29.978Z,978.23
2018-08-24T07:31:29.921Z,978.23
2018-08-24T07:32:29.921Z,978.25
2018-08-24T07:33:29.876Z,978.25
2018-08-24T07:34:29.864Z,978.24
2018-08-24T07:35:29.821Z,978.28
2018-08-24T07:36:29.807Z,978.28
2018-08-24T07:37:29.768Z,978.27
2018-08-24T07:38:29.752Z,978.20
2018-08-24T07:39:29.774Z,978.23
2018-08-24T07:40:29.676Z,978.22
2018-08-24T07:41:29.720Z,978.25
2018-08-24T07:42:29.637Z,978.23
2018-08-24T07:43:29.594Z,978.22
2018-08-24T07:44:29.581Z,978.25
2018-08-24T07:45:29.571Z,978.22
2018-08-24T07:46:29.535Z,978.26
2018-08-24T07:47:29.500Z,978.26
2018-08-24T07:48:29.477Z,978.20
2018-08-24T07:49:29.455Z,978.16
2018-08-24T07:50:29.407Z,978.19
2018-08-24T07:51:29.412Z,978.18
2018-08-24T07:52:29.385Z,978.14
2018-08-24T07:53:29.342Z,978.17
2018-08-24T07:54:29.341Z,978.21
2018-08-24T07:55:29.274Z,978.18
2018-08-24T07:56:29.262Z,978.24
2018-08-24T07:57:29.234Z,978.22
2018-08-24T07:58:29.212Z,978.27
2018-08-24T07:59:29.165Z,978.21
2018-08-24T08:00:29.161Z,978.25
2018-08-24T08:01:29.139Z,978.28
2018-08-24T08:02:29.100Z,978.28
2018-08-24T08:03:29.077Z,978.28
2018-08-24T08:04:29.082Z,978.25
2018-08-24T08:05:29.184Z,978.26
2018-08-24T08:06:35.535Z,978.29
2018-08-24T08:07:28.996Z,978.22
2018-08-24T08:08:28.974Z,978.20
2018-08-24T08:09:28.937Z,978.20
2018-08-24T08:10:28.922Z,978.19
2018-08-24T08:11:28.906Z,978.18
2018-08-24T08:12:28.878Z,978.22
2018-08-24T08:13:28.850Z,978.23
2018-08-24T08:14:28.829Z,978.25
2018-08-24T08:15:28.804Z,978.21
2018-08-24T08:16:28.783Z,978.21
2018-08-24T08:17:28.767Z,978.24
2018-08-24T08:18:28.766Z,978.30
2018-08-24T08:19:28.732Z,978.27
2018-08-24T08:20:28.724Z,978.25
2018-08-24T08:21:28.698Z,978.23
2018-08-24T08:22:28.678Z,978.25
2018-08-24T08:23:28.625Z,978.27
2018-08-24T08:24:28.595Z,978.36
2018-08-24T08:25:28.585Z,978.31
2018-08-24T08:26:28.560Z,978.31
2018-08-24T08:27:28.548Z,978.29
2018-08-24T08:28:28.515Z,978.31
2018-08-24T08:29:28.499Z,978.27
2018-08-24T08:30:28.457Z,978.25
2018-08-24T08:31:28.433Z,978.20
2018-08-24T08:32:28.431Z,978.21
2018-08-24T08:33:28.379Z,978.19
2018-08-24T08:34:28.367Z,978.19
2018-08-24T08:35:28.365Z,978.19
2018-08-24T08:36:28.317Z,978.18
2018-08-24T08:37:28.284Z,978.24
2018-08-24T08:38:28.293Z,978.25
2018-08-24T08:39:28.320Z,978.22
2018-08-24T08:40:28.237Z,978.24
2018-08-24T08:41:28.190Z,978.21
2018-08-24T08:42:28.174Z,978.21
2018-08-24T08:43:28.161Z,978.18
2018-08-24T08:44:28.149Z,978.25
2018-08-24T08:45:28.150Z,978.30
2018-08-24T08:46:28.086Z,978.32
2018-08-24T08:47:28.070Z,978.30
2018-08-24T08:48:28.047Z,978.23
2018-08-24T08:49:28.038Z,978.28
2018-08-24T08:50:27.994Z,978.34
2018-08-24T08:51:27.994Z,978.31
2018-08-24T08:52:27.968Z,978.33
2018-08-24T08:53:27.952Z,978.40
2018-08-24T08:54:27.920Z,978.31
2018-08-24T08:55:27.982Z,978.39
2018-08-24T08:56:27.891Z,978.34
2018-08-24T08:57:27.863Z,978.41
2018-08-24T08:58:27.828Z,978.35
2018-08-24T08:59:27.860Z,978.45
2018-08-24T09:00:27.857Z,978.44
2018-08-24T09:01:27.777Z,978.40
2018-08-24T09:02:27.750Z,978.55
2018-08-24T09:03:27.758Z,978.52
2018-08-24T09:04:27.714Z,978.49
2018-08-24T09:05:27.680Z,978.41
2018-08-24T09:06:27.707Z,978.47
2018-08-24T09:07:27.649Z,978.49
2018-08-24T09:08:27.632Z,978.47
2018-08-24T09:09:27.630Z,978.43
2018-08-24T09:10:27.578Z,978.42
2018-08-24T09:11:27.572Z,978.42
2018-08-24T09:12:27.547Z,978.39
2018-08-24T09:13:27.527Z,978.43
2018-08-24T09:14:27.507Z,978.45
2018-08-24T09:15:27.488Z,978.47
2018-08-24T09:16:27.458Z,978.45
2018-08-24T09:17:27.451Z,978.49
2018-08-24T09:18:27.439Z,978.48
2018-08-24T09:19:27.417Z,978.52
2018-08-24T09:20:27.390Z,978.54
2018-08-24T09:21:27.371Z,978.61
2018-08-24T09:22:27.344Z,978.51
2018-08-24T09:23:27.329Z,978.58
2018-08-24T09:24:27.348Z,978.54
2018-08-24T09:25:27.355Z,978.59
2018-08-24T09:26:27.271Z,978.56
2018-08-24T09:27:27.274Z,978.56
2018-08-24T09:28:27.230Z,978.58
2018-08-24T09:29:27.194Z,978.57
2018-08-24T09:30:27.206Z,978.61
2018-08-24T09:31:27.151Z,978.60
2018-08-24T09:32:27.170Z,978.58
2018-08-24T09:33:27.109Z,978.61
2018-08-24T09:34:27.090Z,978.58
2018-08-24T09:35:27.074Z,978.60
2018-08-24T09:36:27.053Z,978.62
2018-08-24T09:37:27.033Z,978.59
2018-08-24T09:38:27.018Z,978.60
2018-08-24T09:39:26.987Z,978.64
2018-08-24T09:40:26.974Z,978.60
2018-08-24T09:41:26.957Z,978.58
2018-08-24T09:42:26.923Z,978.55
2018-08-24T09:43:26.908Z,978.53
2018-08-24T09:44:26.884Z,978.56
2018-08-24T09:45:26.873Z,978.55
2018-08-24T09:46:26.858Z,978.51
2018-08-24T09:47:26.826Z,978.55
2018-08-24T09:48:26.798Z,978.59
2018-08-24T09:49:26.780Z,978.54
2018-08-24T09:50:26.754Z,978.59
2018-08-24T09:51:26.733Z,978.55
2018-08-24T09:52:26.724Z,978.51
2018-08-24T09:53:26.704Z,978.48
2018-08-24T09:54:26.666Z,978.52
2018-08-24T09:55:26.633Z,978.48
2018-08-24T09:56:26.651Z,978.52
2018-08-24T09:57:26.578Z,978.51
2018-08-24T09:58:26.560Z,978.50
2018-08-24T09:59:26.548Z,978.48
2018-08-24T10:00:26.511Z,978.50
2018-08-24T10:01:26.489Z,978.47
2018-08-24T10:02:26.472Z,978.46
2018-08-24T10:03:26.455Z,978.49
2018-08-24T10:04:26.427Z,978.50
2018-08-24T10:05:26.391Z,978.48
2018-08-24T10:06:26.468Z,978.47
2018-08-24T10:07:26.339Z,978.49
2018-08-24T10:08:26.322Z,978.49
2018-08-24T10:09:27.383Z,978.44
2018-08-24T10:10:26.288Z,978.53
2018-08-24T10:11:26.242Z,978.49
2018-08-24T10:12:26.257Z,978.51
2018-08-24T10:13:26.340Z,978.48
2018-08-24T10:14:26.158Z,978.53
2018-08-24T10:15:26.147Z,978.54
2018-08-24T10:16:26.105Z,978.55
2018-08-24T10:17:26.088Z,978.57
2018-08-24T10:18:26.075Z,978.62
2018-08-24T10:19:26.065Z,978.58
2018-08-24T10:20:26.023Z,978.59
2018-08-24T10:21:25.999Z,978.57
2018-08-24T10:22:25.991Z,978.58
2018-08-24T10:23:25.946Z,978.58
2018-08-24T10:24:25.919Z,978.58
2018-08-24T10:25:25.916Z,978.55
2018-08-24T10:26:25.857Z,978.55
2018-08-24T10:27:25.839Z,978.55
2018-08-24T10:28:25.834Z,978.55
2018-08-24T10:29:25.905Z,978.54
2018-08-24T10:30:25.768Z,978.48
2018-08-24T10:31:25.751Z,978.51
2018-08-24T10:32:25.720Z,978.53
2018-08-24T10:33:25.706Z,978.51
2018-08-24T10:34:25.661Z,978.48
2018-08-24T10:35:25.657Z,978.52
2018-08-24T10:36:25.625Z,978.51
2018-08-24T10:37:25.604Z,978.50
2018-08-24T10:38:25.563Z,978.49
2018-08-24T10:39:25.651Z,978.51
2018-08-24T10:40:25.520Z,978.47
2018-08-24T10:41:25.487Z,978.48
2018-08-24T10:42:25.453Z,978.48
2018-08-24T10:43:25.486Z,978.50
2018-08-24T10:44:25.415Z,978.49
2018-08-24T10:45:25.415Z,978.51
2018-08-24T10:46:25.366Z,978.49
2018-08-24T10:47:25.440Z,978.43
2018-08-24T10:48:25.315Z,978.45
2018-08-24T10:49:25.355Z,978.39
2018-08-24T10:50:25.314Z,978.42
2018-08-24T10:51:25.250Z,978.48
2018-08-24T10:52:25.223Z,978.43
2018-08-24T10:53:25.189Z,978.42
2018-08-24T10:54:25.201Z,978.39
2018-08-24T10:55:25.178Z,978.44
2018-08-24T10:56:25.125Z,978.42
2018-08-24T10:57:25.132Z,978.48
2018-08-24T10:58:25.092Z,978.46
2018-08-24T10:59:25.069Z,978.50
2018-08-24T11:00:25.086Z,978.49
2018-08-24T11:01:25.087Z,978.51
2018-08-24T11:02:25.023Z,978.45
2018-08-24T11:03:24.981Z,978.44
2018-08-24T11:04:24.955Z,978.47
2018-08-24T11:05:24.976Z,978.44
2018-08-24T11:06:24.907Z,978.46
2018-08-24T11:07:25.035Z,978.48
2018-08-24T11:08:24.877Z,978.40
2018-08-24T11:09:24.858Z,978.42
2018-08-24T11:10:24.826Z,978.46
2018-08-24T11:11:24.791Z,978.46
2018-08-24T11:12:24.761Z,978.47
2018-08-24T11:13:24.765Z,978.46
2018-08-24T11:14:24.734Z,978.45
2018-08-24T11:15:24.696Z,978.46
2018-08-24T11:16:24.674Z,978.49
2018-08-24T11:17:24.640Z,978.51
2018-08-24T11:18:24.609Z,978.44
2018-08-24T11:19:24.641Z,978.43
2018-08-24T11:20:24.582Z,978.40
2018-08-24T11:21:24.540Z,978.41
2018-08-24T11:22:24.604Z,978.41
2018-08-24T11:23:24.490Z,978.45
2018-08-24T11:24:24.465Z,978.44
2018-08-24T11:25:24.438Z,978.48
2018-08-24T11:26:24.421Z,978.44
2018-08-24T11:27:24.399Z,978.41
2018-08-24T11:28:24.378Z,978.47
2018-08-24T11:29:24.424Z,978.45
2018-08-24T11:30:24.321Z,978.43
2018-08-24T11:31:24.322Z,978.45
2018-08-24T11:32:24.298Z,978.50
2018-08-24T11:33:24.242Z,978.51
2018-08-24T11:34:24.204Z,978.52
2018-08-24T11:35:24.242Z,978.51
2018-08-24T11:36:24.209Z,978.52
2018-08-24T11:37:24.161Z,978.52
2018-08-24T11:38:24.109Z,978.55
2018-08-24T11:39:24.082Z,978.55
2018-08-24T11:40:24.081Z,978.56
2018-08-24T11:41:24.067Z,978.58
2018-08-24T11:42:23.993Z,978.61
2018-08-24T11:43:23.958Z,978.68
2018-08-24T11:44:23.933Z,978.63
2018-08-24T11:45:23.969Z,978.66
2018-08-24T11:46:23.916Z,978.67
2018-08-24T11:47:23.877Z,978.64
2018-08-24T11:48:23.826Z,978.71
2018-08-24T11:49:23.821Z,978.69
2018-08-24T11:50:23.764Z,978.74
2018-08-24T11:51:23.743Z,978.73
2018-08-24T11:52:23.722Z,978.72
2018-08-24T11:53:23.684Z,978.76
2018-08-24T11:54:23.679Z,978.79
2018-08-24T11:55:23.653Z,978.75
2018-08-24T11:56:23.619Z,978.82
2018-08-24T11:57:23.586Z,978.76
2018-08-24T11:58:23.554Z,978.79
2018-08-24T11:59:23.517Z,978.79
2018-08-24T12:00:23.500Z,978.77
2018-08-24T12:01:23.566Z,978.83
2018-08-24T12:02:23.456Z,978.82
2018-08-24T12:03:23.406Z,978.81
2018-08-24T12:04:23.385Z,978.81
2018-08-24T12:05:23.385Z,978.82
2018-08-24T12:06:23.330Z,978.81
2018-08-24T12:07:23.292Z,978.78
2018-08-24T12:08:23.303Z,978.78
2018-08-24T12:09:23.237Z,978.72
2018-08-24T12:10:23.216Z,978.72
2018-08-24T12:11:23.203Z,978.73
2018-08-24T12:12:23.201Z,978.69
2018-08-24T12:13:23.135Z,978.72
2018-08-24T12:14:23.175Z,978.74
2018-08-24T12:15:23.161Z,978.72
2018-08-24T12:16:23.059Z,978.74
2018-08-24T12:17:23.010Z,978.72
2018-08-24T12:18:23.014Z,978.74
2018-08-24T12:19:22.986Z,978.72
2018-08-24T12:20:22.915Z,978.70
2018-08-24T12:21:22.968Z,978.73
2018-08-24T12:22:22.878Z,978.76
2018-08-24T12:23:22.834Z,978.76
2018-08-24T12:24:22.897Z,978.71
2018-08-24T12:25:22.781Z,978.85
2018-08-24T12:26:22.759Z,978.76
2018-08-24T12:27:22.737Z,978.78
2018-08-24T12:28:22.701Z,978.81